Time;durP1;ratioP1;P1;durP2;ratioP2;P2;SDS_P1;SDS_P2;PMS_P1;PMS_P2;Temp;Humidity;BMP_temperature;BMP_pressure;BME280_temperature;BME280_humidity;BME280_pressure;Samples;Min_cycle;Max_cycle;Signal;HPM_P1;HPM_P2
2022/04/30 00:00:41;;;;;;;2.80;2.60;;;;;;;17.69;49.59;97561.66;4880416;29;20681;-88
2022/04/30 00:03:09;;;;;;;2.73;2.53;;;;;;;17.08;49.76;97521.50;4873027;29;20231;-89
2022/04/30 00:05:35;;;;;;;3.07;2.73;;;;;;;13.69;49.69;96891.34;4866562;29;20275;-89
2022/04/30 00:08:08;;;;;;;2.47;2.30;;;;;;;17.98;49.73;97578.19;4864800;29;20266;-89
2022/04/30 00:10:37;;;;;;;2.97;2.77;;;;;;;19.90;49.71;97920.25;4901217;29;20774;-89
2022/04/30 00:13:06;;;;;;;2.97;2.77;;;;;;;19.92;49.80;97922.88;4932136;29;20634;-88
2022/04/30 00:15:34;;;;;;;2.70;2.50;;;;;;;19.91;49.67;97926.25;4879798;29;20198;-89
2022/04/30 00:18:01;;;;;;;3.00;2.73;;;;;;;13.85;49.55;96901.41;4892947;29;20264;-90
2022/04/30 00:20:28;;;;;;;2.90;2.70;;;;;;;12.16;49.79;96717.81;4882941;29;20217;-88
2022/04/30 00:22:59;;;;;;;3.20;2.90;;;;;;;14.49;49.69;96972.00;4880285;29;20672;-88
2022/04/30 00:25:25;;;;;;;3.10;2.80;;;;;;;18.92;49.57;97761.34;4902874;29;20236;-88
2022/04/30 00:27:55;;;;;;;2.90;2.70;;;;;;;13.12;49.52;96847.19;4888292;29;20226;-87
2022/04/30 00:30:21;;;;;;;3.17;2.93;;;;;;;13.63;49.66;96901.16;4848405;29;20303;-89
2022/04/30 00:32:48;;;;;;;3.37;3.07;;;;;;;12.49;49.54;96698.53;4904311;29;20198;-88
2022/04/30 00:35:15;;;;;;;3.37;3.07;;;;;;;16.46;49.70;97321.50;4864632;29;20210;-88
2022/04/30 00:37:50;;;;;;;3.00;2.70;;;;;;;14.44;49.28;96996.16;4878191;29;20233;-89
2022/04/30 00:40:17;;;;;;;3.30;2.97;;;;;;;13.80;49.56;96852.31;4880406;29;20217;-89
2022/04/30 00:42:44;;;;;;;2.93;2.73;;;;;;;19.95;49.64;97920.47;4870015;29;20639;-88
2022/04/30 00:45:10;;;;;;;2.47;2.37;;;;;;;15.84;49.35;97202.00;4877868;29;20222;-89
2022/04/30 00:47:40;;;;;;;3.47;2.90;;;;;;;13.12;49.43;96737.09;4921886;29;20229;-88
2022/04/30 00:50:10;;;;;;;2.70;2.50;;;;;;;15.12;49.33;97136.03;4895215;29;20725;-88
2022/04/30 00:52:37;;;;;;;2.70;2.50;;;;;;;17.92;49.32;97688.09;4876640;29;20237;-89
2022/04/30 00:55:05;;;;;;;2.87;2.67;;;;;;;17.00;49.47;97393.38;4897535;29;20676;-89
2022/04/30 00:57:32;;;;;;;2.80;2.60;;;;;;;19.96;49.57;97904.38;4898918;29;20205;-88
2022/04/30 01:00:00;;;;;;;2.70;2.50;;;;;;;19.23;49.61;97780.56;4914082;29;20205;-90
2022/04/30 01:02:28;;;;;;;2.80;2.60;;;;;;;18.83;49.76;97732.94;4899041;29;20346;-88
2022/04/30 01:04:57;;;;;;;2.50;2.40;;;;;;;19.97;49.63;97898.44;4897106;29;20586;-88
2022/04/30 01:07:23;;;;;;;2.47;2.27;;;;;;;19.51;49.84;97823.41;4881919;29;20329;-89
2022/04/30 01:09:51;;;;;;;2.93;2.73;;;;;;;19.96;49.71;97899.25;4879646;29;20293;-88
2022/04/30 01:12:17;;;;;;;2.70;2.50;;;;;;;19.96;49.70;97901.81;4933049;29;20750;-88
2022/04/30 01:14:44;;;;;;;3.13;2.93;;;;;;;19.96;49.60;97892.47;4933454;29;20266;-90
2022/04/30 01:17:11;;;;;;;3.10;2.70;;;;;;;19.44;49.83;97804.44;4901287;29;20683;-88
2022/04/30 01:19:43;;;;;;;2.87;2.67;;;;;;;19.04;49.70;97733.88;4916030;29;20744;-88
2022/04/30 01:22:30;;;;;;;2.60;2.40;;;;;;;19.97;49.77;97888.25;4882463;29;20206;-88
2022/04/30 01:25:00;;;;;;;3.00;2.80;;;;;;;19.53;49.90;97817.56;4910749;29;20287;-88
2022/04/30 01:27:28;;;;;;;3.20;2.90;;;;;;;19.52;49.69;97805.63;4901068;29;20287;-90
2022/04/30 01:29:55;;;;;;;2.97;2.70;;;;;;;19.97;49.91;97888.25;4912725;29;20260;-90
2022/04/30 01:38:02;;;;;;;2.73;2.53;;;;;;;19.98;49.81;97889.97;4901433;29;20672;-88
2022/04/30 01:40:29;;;;;;;2.70;2.50;;;;;;;19.98;49.87;97884.88;4918026;29;20240;-89
2022/04/30 01:42:59;;;;;;;3.40;3.10;;;;;;;18.61;50.05;97670.06;4897873;29;20560;-89
2022/04/30 01:45:26;;;;;;;2.80;2.60;;;;;;;19.98;49.73;97886.56;4881691;29;20216;-89
2022/04/30 01:47:53;;;;;;;2.90;2.70;;;;;;;18.97;49.76;97726.75;4881350;29;20229;-88
2022/04/30 01:50:21;;;;;;;3.00;2.80;;;;;;;15.13;49.71;97115.00;4892244;29;20209;-90
2022/04/30 01:52:48;;;;;;;3.00;2.80;;;;;;;15.46;49.63;97091.31;4911440;29;20288;-88
2022/04/30 01:55:14;;;;;;;2.73;2.53;;;;;;;16.90;49.82;97329.44;4896407;29;20609;-90
2022/04/30 02:00:27;;;;;;;2.73;2.53;;;;;;;18.91;49.92;97698.47;4292768;26;20196;-89
2022/04/30 02:02:54;;;;;;;2.80;2.60;;;;;;;19.56;49.85;97804.06;4954298;28;20229;-89
2022/04/30 02:05:22;;;;;;;2.80;2.60;;;;;;;18.66;49.73;97653.31;4957257;28;20180;-89
2022/04/30 02:08:00;;;;;;;3.03;2.83;;;;;;;18.69;49.94;97666.16;4922146;29;20198;-89
2022/04/30 02:10:27;;;;;;;2.77;2.57;;;;;;;19.13;49.70;97717.28;4950839;29;20209;-89
2022/04/30 02:12:54;;;;;;;2.60;2.40;;;;;;;18.53;49.79;97617.94;4929409;29;20205;-89
2022/04/30 02:15:20;;;;;;;2.60;2.40;;;;;;;18.57;49.70;97618.97;4940727;29;20262;-90
2022/04/30 02:17:47;;;;;;;3.00;2.80;;;;;;;19.56;49.76;97784.53;4957009;29;20209;-90
2022/04/30 02:20:24;;;;;;;2.70;2.50;;;;;;;18.37;49.87;97579.94;4929180;29;20201;-90
2022/04/30 02:22:54;;;;;;;2.80;2.60;;;;;;;19.10;49.75;97701.84;4923159;29;20206;-90
2022/04/30 02:25:21;;;;;;;2.70;2.50;;;;;;;18.99;49.38;97685.28;4936209;29;20186;-89
2022/04/30 02:27:50;;;;;;;2.80;2.60;;;;;;;19.76;49.80;97819.38;4932498;29;20320;-89
2022/04/30 02:30:18;;;;;;;2.50;2.30;;;;;;;18.95;49.60;97662.16;4932825;29;20197;-89
2022/04/30 02:32:46;;;;;;;2.67;2.47;;;;;;;19.99;49.88;97844.13;4938830;29;20209;-89
2022/04/30 02:35:14;;;;;;;4.10;2.67;;;;;;;19.57;49.81;97773.53;4950440;29;20205;-89
2022/04/30 02:37:44;;;;;;;2.90;2.70;;;;;;;18.72;49.72;97617.06;4906478;29;20218;-89
2022/04/30 02:40:17;;;;;;;3.10;2.90;;;;;;;19.10;49.81;97678.09;4947788;29;20216;-89
2022/04/30 02:42:44;;;;;;;2.50;2.30;;;;;;;19.31;49.88;97715.53;4944280;29;20182;-89
2022/04/30 02:45:14;;;;;;;2.50;2.30;;;;;;;19.58;49.97;97756.56;4956264;29;20181;-89
2022/04/30 02:47:42;;;;;;;2.80;2.50;;;;;;;19.27;49.90;97703.47;4956747;29;20278;-89
2022/04/30 02:50:11;;;;;;;2.80;2.60;;;;;;;18.63;49.67;97609.03;4924857;29;20205;-89
2022/04/30 02:52:37;;;;;;;2.73;2.53;;;;;;;19.66;49.69;97768.81;4928261;29;20212;-89
2022/04/30 02:55:05;;;;;;;3.30;3.00;;;;;;;18.30;49.76;97528.72;4940180;29;20229;-89
2022/04/30 03:00:42;;;;;;;2.50;2.30;;;;;;;18.78;49.75;97608.00;4935564;29;20201;-89
2022/04/30 03:03:10;;;;;;;2.53;2.33;;;;;;;19.51;49.87;97732.50;4955015;28;20185;-89
2022/04/30 03:05:39;;;;;;;3.80;2.90;;;;;;;19.58;49.86;97741.25;4939991;29;20193;-90
2022/04/30 03:08:13;;;;;;;2.83;2.63;;;;;;;19.57;49.75;97737.00;4941102;29;20233;-89
2022/04/30 03:10:41;;;;;;;3.00;2.80;;;;;;;19.58;49.92;97731.94;4934830;29;20189;-89
2022/04/30 03:13:07;;;;;;;3.00;2.70;;;;;;;18.70;49.85;97583.00;4945887;29;20217;-90
2022/04/30 03:15:34;;;;;;;2.87;2.67;;;;;;;18.83;49.82;97623.47;4956695;29;20195;-89
2022/04/30 03:23:33;;;;;;;2.63;2.43;;;;;;;18.94;49.66;97614.56;4960450;29;20184;-89
2022/04/30 03:26:00;;;;;;;2.93;2.70;;;;;;;19.56;49.83;97722.47;4960824;29;20189;-89
2022/04/30 03:28:26;;;;;;;3.30;3.00;;;;;;;19.56;49.69;97722.47;4946279;29;20229;-89
2022/04/30 03:30:53;;;;;;;2.30;2.20;;;;;;;19.28;49.72;97676.31;4956039;29;20196;-90
2022/04/30 03:33:19;;;;;;;2.97;2.77;;;;;;;18.92;49.61;97613.66;4943947;29;20219;-89
2022/04/30 03:35:46;;;;;;;3.00;2.80;;;;;;;18.74;49.80;97567.09;4958944;29;20200;-89
2022/04/30 03:38:13;;;;;;;2.70;2.50;;;;;;;19.55;50.24;97708.88;4959954;29;20225;-89
2022/04/30 03:40:40;;;;;;;2.70;2.50;;;;;;;19.90;49.68;97771.47;4946880;29;20192;-89
2022/04/30 03:43:07;;;;;;;3.33;3.03;;;;;;;19.56;49.86;97704.63;4954016;29;20197;-89
2022/04/30 03:45:34;;;;;;;2.60;2.40;;;;;;;18.46;49.70;97510.75;4937304;29;20189;-89
2022/04/30 03:48:00;;;;;;;3.40;2.60;;;;;;;19.30;49.61;97657.72;4942308;29;20197;-89
2022/04/30 03:50:27;;;;;;;2.90;2.70;;;;;;;18.92;50.08;97594.13;4956909;29;20208;-89
2022/04/30 03:52:54;;;;;;;2.70;2.50;;;;;;;19.05;49.88;97619.31;4948117;29;20213;-89
2022/04/30 03:55:20;;;;;;;2.83;2.63;;;;;;;19.09;49.92;97626.25;4940565;29;20200;-89
2022/04/30 03:57:47;;;;;;;2.67;2.40;;;;;;;18.82;49.82;97614.06;4942833;29;20205;-89
2022/04/30 04:00:14;;;;;;;2.70;2.50;;;;;;;19.64;49.90;97732.19;4957381;29;20193;-89
2022/04/30 04:02:41;;;;;;;2.77;2.57;;;;;;;19.19;49.82;97651.28;4962525;28;20185;-88
2022/04/30 04:05:12;;;;;;;2.63;2.43;;;;;;;19.17;50.04;97657.13;4933464;29;20185;-89
2022/04/30 04:07:39;;;;;;;2.80;2.60;;;;;;;18.70;49.79;97591.53;4940454;29;20193;-89
2022/04/30 04:10:06;;;;;;;2.53;2.33;;;;;;;18.70;49.85;97575.38;4942648;29;20224;-89
2022/04/30 04:12:33;;;;;;;2.90;2.70;;;;;;;19.98;50.05;97802.38;4932187;29;20224;-89
2022/04/30 04:17:45;;;;;;;2.40;2.30;;;;;;;19.20;49.71;97680.19;4940487;29;20202;-89
2022/04/30 04:20:17;;;;;;;3.00;2.80;;;;;;;19.62;49.97;97730.38;4940214;29;20221;-89
2022/04/30 04:22:45;;;;;;;2.70;2.50;;;;;;;19.98;49.94;97802.38;4925218;29;20193;-90
2022/04/30 04:27:58;;;;;;;2.80;2.60;;;;;;;18.74;49.88;97585.75;4942262;29;20202;-89
2022/04/30 04:30:26;;;;;;;2.80;2.60;;;;;;;18.85;49.87;97607.44;4958559;28;20213;-89
2022/04/30 04:32:53;;;;;;;2.87;2.67;;;;;;;19.56;50.11;97727.56;4948264;29;20213;-89
2022/04/30 04:35:20;;;;;;;2.80;2.60;;;;;;;18.88;49.95;97634.69;4941667;29;20472;-90
2022/04/30 04:37:47;;;;;;;2.60;2.40;;;;;;;19.49;49.84;97721.38;4941959;29;20202;-90
2022/04/30 04:40:14;;;;;;;2.87;2.67;;;;;;;19.84;49.92;97779.72;4942897;29;20193;-89
2022/04/30 04:42:45;;;;;;;2.50;2.30;;;;;;;19.55;49.96;97728.41;4950925;29;20193;-89
2022/04/30 04:45:12;;;;;;;2.90;2.70;;;;;;;18.77;49.79;97613.03;4941180;29;20201;-89
2022/04/30 04:47:41;;;;;;;3.20;2.90;;;;;;;18.95;50.04;97647.75;4956761;29;20256;-89
2022/04/30 04:50:09;;;;;;;2.93;2.73;;;;;;;19.96;49.93;97800.63;4927558;29;20206;-89
2022/04/30 04:52:35;;;;;;;3.40;3.10;;;;;;;19.97;49.81;97811.72;4929638;29;20265;-89
2022/04/30 04:55:02;;;;;;;2.97;2.77;;;;;;;19.50;49.93;97727.34;4957402;29;20208;-89
2022/04/30 04:57:29;;;;;;;3.03;2.83;;;;;;;19.71;49.91;97764.75;4958544;29;20213;-90
2022/04/30 04:59:56;;;;;;;3.23;2.93;;;;;;;19.35;49.93;97703.78;4941495;29;20470;-90
2022/04/30 05:02:23;;;;;;;2.63;2.43;;;;;;;19.00;49.84;97643.72;4944355;28;20190;-89
2022/04/30 05:04:50;;;;;;;3.00;2.80;;;;;;;18.89;49.85;97628.81;4943317;28;20193;-89
2022/04/30 05:07:17;;;;;;;2.90;2.70;;;;;;;19.22;49.99;97676.03;4966376;28;20193;-90
2022/04/30 05:09:43;;;;;;;2.90;2.67;;;;;;;19.50;50.17;97727.34;4943530;28;20186;-90
2022/04/30 05:12:11;;;;;;;2.90;2.70;;;;;;;18.43;49.86;97561.50;4939748;28;20222;-89
2022/04/30 05:14:37;;;;;;;3.10;2.80;;;;;;;19.85;50.24;97783.16;4963261;28;20185;-89
2022/04/30 05:17:04;;;;;;;3.00;2.80;;;;;;;19.18;49.99;97682.66;4962837;28;20209;-89
2022/04/30 05:19:32;;;;;;;2.97;2.67;;;;;;;18.89;50.16;97639.84;4957060;29;20205;-90
2022/04/30 05:21:59;;;;;;;3.00;2.80;;;;;;;19.28;49.96;97694.16;4943983;29;20182;-89
2022/04/30 05:24:25;;;;;;;2.87;2.67;;;;;;;19.53;49.91;97737.66;4954444;29;20196;-90
2022/04/30 05:26:52;;;;;;;3.10;2.90;;;;;;;19.49;49.81;97740.91;4943134;29;20197;-90
2022/04/30 05:29:19;;;;;;;2.87;2.67;;;;;;;19.09;49.94;97673.78;4924264;29;20217;-89
2022/04/30 05:31:46;;;;;;;3.37;3.13;;;;;;;19.55;49.86;97751.34;4953243;28;20185;-89
2022/04/30 05:34:12;;;;;;;3.60;3.30;;;;;;;18.91;49.89;97670.47;4972511;28;20217;-90
2022/04/30 05:36:39;;;;;;;3.20;3.00;;;;;;;18.48;49.90;97582.94;4965995;28;20181;-90
2022/04/30 05:39:05;;;;;;;3.40;3.07;;;;;;;19.45;50.03;97751.78;4958205;29;20209;-90
2022/04/30 05:41:32;;;;;;;3.30;3.10;;;;;;;19.13;50.08;97703.69;4950615;29;20196;-90
2022/04/30 05:43:59;;;;;;;3.20;3.00;;;;;;;18.55;50.14;97626.53;4946241;29;20200;-90
2022/04/30 05:46:26;;;;;;;3.73;3.43;;;;;;;19.33;49.76;97747.03;4940922;29;20177;-90
2022/04/30 05:48:53;;;;;;;5.80;5.30;;;;;;;19.23;48.63;97721.06;4948522;29;20202;-89
2022/04/30 05:51:20;;;;;;;5.77;5.17;;;;;;;18.98;48.11;97688.63;4950435;29;20208;-89
2022/04/30 05:53:46;;;;;;;4.63;4.23;;;;;;;18.15;48.77;97539.97;4941452;29;20229;-90
2022/04/30 05:56:13;;;;;;;5.07;4.57;;;;;;;19.98;49.05;97865.34;4928805;29;20177;-89
2022/04/30 05:58:40;;;;;;;5.43;4.93;;;;;;;18.47;48.61;97607.50;4957616;29;20210;-89
2022/04/30 06:01:06;;;;;;;5.43;4.93;;;;;;;19.55;48.98;97789.56;4956326;29;20204;-89
2022/04/30 06:03:33;;;;;;;6.70;4.93;;;;;;;19.33;49.02;97748.72;4944543;29;20205;-89
2022/04/30 06:06:00;;;;;;;6.27;4.83;;;;;;;19.03;49.26;97696.44;4940691;29;20240;-89
2022/04/30 06:08:27;;;;;;;6.57;5.20;;;;;;;19.13;49.30;97721.50;4948121;29;20253;-91
2022/04/30 06:10:54;;;;;;;6.70;5.13;;;;;;;19.46;49.23;97772.25;4938326;29;20280;-90
2022/04/30 06:13:21;;;;;;;5.83;4.97;;;;;;;18.71;49.21;97635.69;4965616;28;20193;-89
2022/04/30 06:15:48;;;;;;;5.13;4.63;;;;;;;18.74;49.27;97638.38;4941466;29;20484;-89
2022/04/30 06:18:16;;;;;;;5.07;4.67;;;;;;;18.68;49.31;97633.00;4936976;29;20230;-88
2022/04/30 06:20:43;;;;;;;6.87;4.77;;;;;;;19.40;48.96;97768.56;4945382;29;20196;-89
2022/04/30 06:23:10;;;;;;;6.80;4.80;;;;;;;18.69;48.70;97642.38;4917830;29;20283;-89
2022/04/30 06:25:36;;;;;;;7.10;5.13;;;;;;;18.83;48.78;97664.22;4934175;29;20192;-89
2022/04/30 06:28:03;;;;;;;9.20;6.23;;;;;;;18.85;48.66;97660.91;4946619;29;20190;-89
2022/04/30 06:30:30;;;;;;;9.27;5.87;;;;;;;18.72;48.80;97658.66;4957359;28;20186;-89
2022/04/30 06:32:57;;;;;;;6.73;5.77;;;;;;;19.49;48.69;97774.03;4965037;28;20208;-88
2022/04/30 06:35:23;;;;;;;7.83;6.40;;;;;;;19.24;48.19;97731.34;4955173;29;20200;-88
2022/04/30 06:37:50;;;;;;;7.40;6.70;;;;;;;18.82;47.82;97680.25;4956148;29;20181;-90
2022/04/30 06:40:16;;;;;;;10.23;7.23;;;;;;;19.18;47.83;97720.88;4956232;29;20209;-88
2022/04/30 06:42:46;;;;;;;8.07;7.20;;;;;;;18.91;47.27;97678.97;4953344;29;20203;-88
2022/04/30 06:45:13;;;;;;;10.13;8.20;;;;;;;18.47;47.81;97596.47;4945982;29;20206;-89
2022/04/30 06:47:40;;;;;;;12.07;7.67;;;;;;;19.04;47.88;97699.06;4949878;28;20197;-89
2022/04/30 06:50:07;;;;;;;8.67;7.60;;;;;;;18.78;47.88;97653.81;4960419;28;20212;-89
2022/04/30 06:52:34;;;;;;;7.90;7.10;;;;;;;19.32;48.00;97746.97;4956907;28;20834;-89
2022/04/30 06:57:47;;;;;;;9.03;6.90;;;;;;;19.18;48.10;97737.84;4937497;29;20182;-89
2022/04/30 07:02:59;;;;;;;10.63;7.20;;;;;;;18.62;47.93;97627.66;4959316;28;20188;-89
2022/04/30 07:05:27;;;;;;;7.90;7.10;;;;;;;19.18;47.60;97730.19;4965844;28;20183;-88
2022/04/30 07:07:53;;;;;;;9.70;7.30;;;;;;;19.00;47.49;97701.41;4965931;28;20185;-89
2022/04/30 07:10:20;;;;;;;8.07;6.93;;;;;;;18.77;47.80;97674.13;4961723;28;20181;-89
2022/04/30 07:12:48;;;;;;;11.90;7.30;;;;;;;19.73;47.94;97831.13;4956623;29;20217;-89
2022/04/30 07:15:14;;;;;;;18.27;6.90;;;;;;;19.54;48.10;97795.50;4956755;29;20196;-88
2022/04/30 07:17:41;;;;;;;7.43;6.57;;;;;;;19.01;48.39;97732.03;4956586;29;20185;-89
2022/04/30 07:20:09;;;;;;;6.93;6.07;;;;;;;19.76;48.42;97847.44;4956132;29;20209;-89
2022/04/30 07:22:36;;;;;;;7.53;6.10;;;;;;;18.87;48.35;97692.41;4956435;29;20216;-89
2022/04/30 07:25:05;;;;;;;7.27;6.00;;;;;;;19.51;48.58;97801.31;4956632;29;20185;-89
2022/04/30 07:27:31;;;;;;;7.50;6.03;;;;;;;19.50;48.27;97798.69;4956864;29;20189;-89
2022/04/30 07:29:58;;;;;;;11.03;6.10;;;;;;;18.91;48.55;97699.34;4956154;29;20386;-89
2022/04/30 07:32:25;;;;;;;6.47;5.20;;;;;;;18.88;48.68;97685.63;4924238;29;20221;-89
2022/04/30 07:34:53;;;;;;;8.43;5.60;;;;;;;18.93;48.70;97702.84;4956590;29;20185;-89
2022/04/30 07:37:19;;;;;;;6.63;5.53;;;;;;;19.49;48.62;97792.75;4940531;29;20197;-89
2022/04/30 07:39:46;;;;;;;5.50;4.67;;;;;;;18.70;48.54;97657.72;4956451;29;20205;-89
2022/04/30 07:42:13;;;;;;;5.20;4.70;;;;;;;18.84;48.92;97699.03;4956528;29;20189;-89
2022/04/30 07:44:39;;;;;;;6.70;5.13;;;;;;;18.73;49.06;97651.88;4956344;29;20185;-89
2022/04/30 07:47:06;;;;;;;6.13;5.10;;;;;;;18.95;48.75;97713.09;4956609;29;20227;-89
2022/04/30 07:49:33;;;;;;;5.67;4.40;;;;;;;19.00;48.39;97704.84;4956303;29;20208;-89
2022/04/30 07:52:00;;;;;;;5.87;4.63;;;;;;;19.44;48.88;97785.69;4955708;29;20219;-89
2022/04/30 07:54:26;;;;;;;5.03;4.53;;;;;;;18.18;48.70;97573.16;4955888;29;20233;-89
2022/04/30 07:56:56;;;;;;;5.20;4.70;;;;;;;19.55;48.89;97797.22;4956579;29;20188;-89
2022/04/30 07:59:23;;;;;;;6.57;4.30;;;;;;;18.73;48.84;97662.06;4955653;29;20271;-89
2022/04/30 08:01:50;;;;;;;6.43;4.80;;;;;;;19.50;48.92;97799.59;4955973;29;20246;-88
2022/04/30 08:04:16;;;;;;;4.60;4.20;;;;;;;18.76;49.00;97663.06;4956172;28;20217;-89
2022/04/30 08:06:43;;;;;;;8.63;4.43;;;;;;;19.48;48.84;97791.00;4969094;28;20185;-89
2022/04/30 08:09:12;;;;;;;5.00;4.50;;;;;;;18.58;49.00;97658.84;4977892;28;20224;-88
2022/04/30 08:11:40;;;;;;;4.93;4.43;;;;;;;19.42;49.03;97785.63;4978598;28;20232;-89
2022/04/30 08:14:06;;;;;;;4.40;4.10;;;;;;;18.59;49.14;97665.72;4978960;28;20232;-89
2022/04/30 08:16:33;;;;;;;4.83;4.40;;;;;;;18.56;49.21;97651.16;4978967;28;20204;-89
2022/04/30 08:18:59;;;;;;;4.40;4.00;;;;;;;18.67;48.99;97656.72;4979214;28;20208;-89
2022/04/30 08:21:26;;;;;;;4.53;4.03;;;;;;;18.47;49.07;97630.41;4978723;28;20185;-89
2022/04/30 08:23:53;;;;;;;5.57;4.37;;;;;;;18.48;49.04;97649.97;4963729;28;20192;-89
2022/04/30 08:26:19;;;;;;;5.67;4.60;;;;;;;18.58;49.02;97635.94;4961731;28;20181;-89
2022/04/30 08:28:46;;;;;;;6.60;4.80;;;;;;;18.92;48.59;97712.97;4962825;28;20205;-89
2022/04/30 08:31:12;;;;;;;4.37;3.97;;;;;;;19.13;49.04;97755.47;4959257;29;20193;-89
2022/04/30 08:33:39;;;;;;;4.47;4.07;;;;;;;18.57;49.38;97670.75;4959604;29;20212;-89
2022/04/30 08:36:06;;;;;;;5.00;4.13;;;;;;;18.56;49.10;97661.34;4959443;29;20188;-89
2022/04/30 08:38:33;;;;;;;5.10;4.17;;;;;;;19.12;49.13;97746.09;4959486;29;20209;-89
2022/04/30 08:41:00;;;;;;;4.50;3.87;;;;;;;18.98;49.08;97733.59;4958858;29;20213;-89
2022/04/30 08:43:27;;;;;;;5.17;4.37;;;;;;;18.84;49.07;97715.19;4943032;29;20189;-89
2022/04/30 08:45:53;;;;;;;5.63;3.87;;;;;;;19.06;48.95;97750.06;4927486;29;20185;-89
2022/04/30 08:48:20;;;;;;;5.53;4.40;;;;;;;19.43;49.20;97805.25;4959194;29;20205;-89
2022/04/30 08:50:47;;;;;;;4.13;3.80;;;;;;;18.68;48.96;97674.59;4958610;29;20201;-88
2022/04/30 08:53:14;;;;;;;3.90;3.60;;;;;;;18.39;49.20;97643.63;4960244;29;20217;-89
2022/04/30 08:55:41;;;;;;;4.20;3.80;;;;;;;19.53;49.05;97827.75;4961232;29;20189;-89
2022/04/30 08:58:07;;;;;;;4.37;3.70;;;;;;;19.86;49.13;97885.25;4961195;29;20272;-89
2022/04/30 09:00:41;;;;;;;5.03;3.83;;;;;;;18.58;49.06;97672.47;4960979;29;20209;-89
2022/04/30 09:03:08;;;;;;;4.07;3.67;;;;;;;18.80;49.28;97710.75;4960938;29;20192;-89
2022/04/30 09:05:35;;;;;;;3.90;3.23;;;;;;;18.44;49.23;97645.53;4961000;29;20185;-88
2022/04/30 09:08:02;;;;;;;3.90;3.60;;;;;;;18.41;49.10;97642.03;4960657;29;20213;-89
2022/04/30 09:10:30;;;;;;;6.13;3.70;;;;;;;18.54;49.10;97659.53;4960610;29;20205;-89
2022/04/30 09:13:16;;;;;;;4.20;3.80;;;;;;;19.34;49.14;97787.03;4960642;29;20185;-88
2022/04/30 09:15:46;;;;;;;5.80;3.50;;;;;;;19.40;49.35;97807.66;4960970;29;20212;-89
2022/04/30 09:18:14;;;;;;;4.13;3.73;;;;;;;19.44;49.05;97809.53;4960830;29;20242;-88
2022/04/30 09:20:47;;;;;;;4.90;3.77;;;;;;;18.75;49.35;97706.28;4943856;29;20204;-88
2022/04/30 09:23:27;;;;;;;4.13;3.73;;;;;;;18.85;49.16;97723.69;4960493;29;20189;-89
2022/04/30 09:25:55;;;;;;;3.83;3.43;;;;;;;18.41;49.31;97631.84;4960589;29;20189;-89
2022/04/30 09:28:29;;;;;;;3.17;2.97;;;;;;;19.80;49.25;97889.22;4960370;29;20241;-89
2022/04/30 09:31:14;;;;;;;3.90;3.60;;;;;;;19.86;49.24;97877.59;4960324;29;20184;-89
2022/04/30 09:33:50;;;;;;;3.63;3.33;;;;;;;19.86;49.21;97876.72;4960540;29;20216;-89
2022/04/30 09:39:16;;;;;;;3.90;3.53;;;;;;;18.62;49.28;97673.47;4960216;29;20204;-89
2022/04/30 09:41:42;;;;;;;3.80;3.50;;;;;;;19.43;49.32;97797.59;4960329;29;20189;-89
2022/04/30 09:44:10;;;;;;;4.40;4.00;;;;;;;18.46;49.13;97636.31;4960444;29;20196;-89
2022/04/30 09:46:37;;;;;;;3.90;3.60;;;;;;;18.32;49.42;97594.09;4960564;29;20200;-89
2022/04/30 09:54:36;;;;;;;3.90;3.60;;;;;;;19.41;49.26;97789.00;4959368;29;20216;-89
2022/04/30 09:57:04;;;;;;;3.90;3.40;;;;;;;19.68;49.42;97845.34;4960267;29;20251;-89
2022/04/30 09:59:30;;;;;;;4.00;3.60;;;;;;;19.14;49.60;97762.34;4959570;29;20220;-89
2022/04/30 10:01:57;;;;;;;3.70;3.20;;;;;;;18.89;49.24;97730.66;4943569;29;20189;-89
2022/04/30 10:04:24;;;;;;;4.47;3.50;;;;;;;18.59;49.29;97674.19;4959888;29;20185;-89
2022/04/30 10:06:53;;;;;;;3.90;3.53;;;;;;;18.99;49.21;97736.22;4959874;29;20224;-89
2022/04/30 10:09:31;;;;;;;3.63;3.30;;;;;;;19.62;49.38;97845.09;4943787;29;20221;-89
2022/04/30 10:12:01;;;;;;;3.97;3.67;;;;;;;19.38;49.32;97813.47;4944486;29;20196;-89
2022/04/30 10:14:45;;;;;;;3.60;3.30;;;;;;;19.86;49.58;97885.25;4928448;29;20212;-89
2022/04/30 10:17:12;;;;;;;4.67;3.67;;;;;;;18.92;49.43;97744.38;4943668;29;20192;-88
2022/04/30 10:19:40;;;;;;;3.97;3.50;;;;;;;19.20;49.45;97769.34;4927775;29;20228;-89
2022/04/30 10:22:17;;;;;;;3.70;3.40;;;;;;;19.41;49.54;97811.06;4942586;29;20216;-89
2022/04/30 10:24:45;;;;;;;3.50;3.20;;;;;;;19.37;49.24;97804.09;4959817;29;20201;-88
2022/04/30 10:27:12;;;;;;;3.70;3.40;;;;;;;18.63;49.34;97680.31;4959264;29;20206;-89
2022/04/30 10:29:50;;;;;;;3.57;3.27;;;;;;;19.10;49.39;97760.44;4959321;29;20213;-89
2022/04/30 10:32:29;;;;;;;3.57;3.27;;;;;;;19.77;49.25;97868.69;4943697;29;20189;-90
2022/04/30 10:34:56;;;;;;;3.83;3.43;;;;;;;18.75;49.27;97711.38;4959651;29;20216;-89
2022/04/30 10:37:33;;;;;;;3.30;3.10;;;;;;;18.62;49.47;97670.94;4942927;28;20185;-89
2022/04/30 10:40:09;;;;;;;3.90;3.57;;;;;;;18.37;49.42;97624.81;4959160;29;20216;-89
2022/04/30 10:42:43;;;;;;;3.63;3.33;;;;;;;19.42;49.39;97808.56;4959259;29;20185;-89
2022/04/30 10:45:15;;;;;;;3.90;3.40;;;;;;;18.55;49.40;97674.00;4928104;29;20188;-89
2022/04/30 10:47:58;;;;;;;3.40;3.00;;;;;;;18.39;49.42;97643.63;4943480;29;20196;-89
2022/04/30 10:50:24;;;;;;;3.87;3.47;;;;;;;19.39;49.37;97803.34;4959190;29;20189;-89
2022/04/30 10:52:51;;;;;;;3.93;3.63;;;;;;;18.33;49.33;97621.31;4958780;29;20197;-89
2022/04/30 10:55:19;;;;;;;3.73;3.43;;;;;;;18.79;49.42;97695.41;4958970;29;20228;-88
2022/04/30 10:57:46;;;;;;;3.93;3.63;;;;;;;18.83;49.60;97712.59;4961916;28;20192;-89
2022/04/30 11:00:13;;;;;;;3.77;3.37;;;;;;;18.76;49.38;97703.81;4944076;29;20235;-89
2022/04/30 11:02:47;;;;;;;3.77;3.47;;;;;;;18.61;49.55;97656.44;4961876;29;20181;-89
2022/04/30 11:05:18;;;;;;;3.83;3.33;;;;;;;18.85;49.43;97696.56;4959236;29;20249;-89
2022/04/30 11:07:45;;;;;;;3.43;3.13;;;;;;;19.42;49.33;97798.38;4958792;29;20212;-89
2022/04/30 11:10:12;;;;;;;3.60;3.30;;;;;;;18.57;49.58;97652.91;4958859;29;20252;-89
2022/04/30 11:12:39;;;;;;;3.60;3.30;;;;;;;18.35;49.44;97614.59;4958808;29;20228;-89
2022/04/30 11:15:06;;;;;;;3.47;3.13;;;;;;;19.42;49.34;97797.53;4958856;29;20236;-89
2022/04/30 11:17:42;;;;;;;3.83;3.53;;;;;;;18.78;49.46;97686.03;4958735;29;20204;-89
2022/04/30 11:20:22;;;;;;;3.27;2.97;;;;;;;19.41;49.40;97790.69;4958573;29;20279;-88
2022/04/30 11:22:56;;;;;;;3.43;3.13;;;;;;;18.67;49.21;97656.72;4942100;29;20216;-89
2022/04/30 11:25:33;;;;;;;3.30;3.10;;;;;;;19.41;49.33;97786.47;4958875;29;20181;-89
2022/04/30 11:28:00;;;;;;;3.57;3.33;;;;;;;18.98;49.42;97698.81;4942470;29;20233;-88
2022/04/30 11:30:27;;;;;;;3.33;3.07;;;;;;;19.39;49.47;97769.38;4942124;29;20192;-89
2022/04/30 11:32:53;;;;;;;3.27;3.07;;;;;;;18.86;49.35;97674.53;4958840;29;20205;-89
2022/04/30 11:35:20;;;;;;;3.43;3.13;;;;;;;18.58;49.47;97625.78;4958571;29;20213;-89
2022/04/30 11:37:46;;;;;;;3.20;3.00;;;;;;;18.70;49.38;97646.66;4958798;29;20192;-89
2022/04/30 11:40:13;;;;;;;3.30;3.00;;;;;;;19.00;49.54;97676.81;4958314;29;20217;-89
2022/04/30 11:42:40;;;;;;;3.43;3.10;;;;;;;19.25;49.48;97730.53;4943763;29;20213;-89
2022/04/30 11:45:07;;;;;;;3.50;3.20;;;;;;;18.54;49.40;97601.00;4962212;29;20193;-89
2022/04/30 11:47:33;;;;;;;3.97;3.00;;;;;;;19.41;49.55;97747.34;4946308;29;20185;-89
2022/04/30 11:50:08;;;;;;;3.50;3.20;;;;;;;18.60;49.22;97619.09;4962179;29;20221;-89
2022/04/30 11:52:35;;;;;;;3.67;3.30;;;;;;;18.54;49.49;97601.00;4962113;29;20204;-88
2022/04/30 11:55:03;;;;;;;3.73;3.20;;;;;;;19.16;49.53;97696.16;4945659;29;20220;-89
2022/04/30 11:57:30;;;;;;;3.23;3.03;;;;;;;19.39;49.62;97742.19;4944390;29;20197;-88
2022/04/30 11:59:56;;;;;;;3.67;3.37;;;;;;;19.07;49.23;97683.06;4945460;29;20235;-89
2022/04/30 12:02:28;;;;;;;3.50;2.97;;;;;;;18.52;49.64;97584.78;4944706;29;20217;-89
2022/04/30 12:05:02;;;;;;;3.20;3.00;;;;;;;19.41;49.52;97732.06;4961389;29;20201;-88
2022/04/30 12:07:42;;;;;;;3.03;2.70;;;;;;;19.84;49.62;97806.94;4962097;29;20217;-88
2022/04/30 12:10:26;;;;;;;3.23;3.00;;;;;;;18.51;49.38;97566.13;4962050;29;20227;-89
2022/04/30 12:12:53;;;;;;;3.47;3.20;;;;;;;18.67;49.51;97598.16;4945897;29;20208;-89
2022/04/30 12:15:21;;;;;;;3.47;3.17;;;;;;;19.11;49.60;97690.00;4945750;29;20225;-89